createdAt,value
2023-04-28T00:00:55.324Z,59.21
2023-04-28T00:03:23.476Z,59.14
2023-04-28T00:05:51.700Z,58.74
2023-04-28T00:08:21.717Z,58.77
2023-04-28T00:10:51.000Z,59.55
2023-04-28T00:13:18.888Z,60.37
2023-04-28T00:15:46.827Z,60.25
2023-04-28T00:18:14.763Z,60.74
2023-04-28T00:20:42.899Z,60.77
2023-04-28T00:23:10.844Z,60.52
2023-04-28T00:25:38.726Z,60.73
2023-04-28T00:28:08.041Z,60.38
2023-04-28T00:30:35.984Z,60.16
2023-04-28T00:33:03.966Z,60.00
2023-04-28T00:35:32.443Z,59.97
2023-04-28T00:38:00.348Z,59.89
2023-04-28T00:40:34.300Z,59.86
2023-04-28T00:43:02.615Z,59.74
2023-04-28T00:45:31.966Z,59.96
2023-04-28T00:48:00.515Z,61.12
2023-04-28T00:50:28.474Z,60.56
2023-04-28T00:52:56.529Z,61.04
2023-04-28T00:55:27.512Z,61.11
2023-04-28T00:57:58.496Z,61.42
2023-04-28T01:00:26.527Z,60.92
2023-04-28T01:02:57.055Z,60.59
2023-04-28T01:05:26.969Z,60.09
2023-04-28T01:07:55.497Z,59.86
2023-04-28T01:10:23.740Z,59.79
2023-04-28T01:12:51.686Z,60.13
2023-04-28T01:15:21.758Z,60.18
2023-04-28T01:17:52.737Z,60.32
2023-04-28T01:20:22.390Z,60.56
2023-04-28T01:22:50.921Z,60.27
2023-04-28T01:25:20.974Z,60.22
2023-04-28T01:27:49.273Z,59.95
2023-04-28T01:30:17.418Z,60.06
2023-04-28T01:32:45.410Z,60.01
2023-04-28T01:35:13.352Z,60.11
2023-04-28T01:37:41.324Z,59.80
2023-04-28T01:40:10.314Z,59.90
2023-04-28T01:42:39.660Z,60.04
2023-04-28T01:45:08.506Z,59.91
2023-04-28T01:47:37.825Z,59.79
2023-04-28T01:50:06.543Z,60.56
2023-04-28T01:52:34.485Z,60.84
2023-04-28T01:55:02.665Z,60.97
2023-04-28T01:57:30.612Z,60.29
2023-04-28T02:00:00.713Z,60.55
2023-04-28T02:02:29.408Z,60.49
2023-04-28T02:04:59.103Z,60.64
2023-04-28T02:07:27.105Z,60.04
2023-04-28T02:09:55.059Z,60.19
2023-04-28T02:12:23.667Z,60.48
2023-04-28T02:14:52.279Z,61.05
2023-04-28T02:17:22.598Z,61.40
2023-04-28T02:19:56.324Z,61.44
2023-04-28T02:22:24.452Z,61.22
2023-04-28T02:24:52.481Z,61.08
2023-04-28T02:27:20.847Z,61.40
2023-04-28T02:29:49.617Z,60.91
2023-04-28T02:32:18.110Z,60.82
2023-04-28T02:34:47.357Z,61.72
2023-04-28T02:37:15.289Z,61.07
2023-04-28T02:39:43.201Z,62.23
2023-04-28T02:42:11.183Z,62.41
2023-04-28T02:44:39.086Z,61.51
2023-04-28T02:47:07.233Z,61.33
2023-04-28T02:49:35.721Z,61.64
2023-04-28T02:52:05.282Z,61.46
2023-04-28T02:54:35.322Z,61.91
2023-04-28T02:57:04.559Z,62.12
2023-04-28T02:59:32.676Z,62.20
2023-04-28T03:02:00.655Z,62.29
2023-04-28T03:04:28.699Z,63.06
2023-04-28T03:06:56.773Z,62.50
2023-04-28T03:09:26.111Z,63.30
2023-04-28T03:11:54.063Z,62.48
2023-04-28T03:14:21.997Z,62.32
2023-04-28T03:16:50.178Z,62.08
2023-04-28T03:19:18.137Z,62.19
2023-04-28T03:21:47.811Z,62.01
2023-04-28T03:24:15.974Z,62.75
2023-04-28T03:26:45.758Z,62.72
2023-04-28T03:29:13.747Z,62.50
2023-04-28T03:31:42.069Z,62.86
2023-04-28T03:34:09.984Z,61.82
2023-04-28T03:36:38.340Z,61.54
2023-04-28T03:39:14.329Z,61.80
2023-04-28T03:41:43.411Z,62.59
2023-04-28T03:44:30.910Z,62.77
2023-04-28T03:46:59.910Z,62.97
2023-04-28T03:49:27.855Z,63.28
2023-04-28T03:51:55.776Z,62.88
2023-04-28T03:54:23.701Z,62.56
2023-04-28T03:56:51.820Z,62.76
2023-04-28T03:59:19.738Z,61.91
2023-04-28T04:01:49.068Z,61.73
2023-04-28T04:04:17.654Z,60.85
2023-04-28T04:06:46.784Z,60.83
2023-04-28T04:09:15.388Z,60.70
2023-04-28T04:11:43.317Z,60.02
2023-04-28T04:14:11.468Z,60.42
2023-04-28T04:16:39.527Z,60.25
2023-04-28T04:19:08.942Z,60.66
2023-04-28T04:21:42.199Z,61.48
2023-04-28T04:24:10.261Z,62.03
2023-04-28T04:26:38.864Z,62.25
2023-04-28T04:29:23.751Z,62.57
2023-04-28T04:31:52.574Z,62.76
2023-04-28T04:34:21.885Z,62.72
2023-04-28T04:36:50.579Z,62.90
2023-04-28T04:39:19.133Z,62.45
2023-04-28T04:41:48.759Z,62.05
2023-04-28T04:44:38.938Z,62.14
2023-04-28T04:47:11.751Z,62.69
2023-04-28T04:49:41.229Z,62.76
2023-04-28T04:52:09.293Z,62.44
2023-04-28T04:54:37.212Z,62.87
2023-04-28T04:57:06.798Z,62.26
2023-04-28T05:00:13.821Z,62.44
2023-04-28T05:02:43.254Z,61.93
2023-04-28T05:07:50.090Z,61.64
2023-04-28T05:10:18.176Z,61.93
2023-04-28T05:12:48.751Z,61.30
2023-04-28T05:15:19.058Z,61.57
2023-04-28T05:18:10.954Z,61.31
2023-04-28T05:20:40.476Z,62.33
2023-04-28T05:23:08.437Z,62.23
2023-04-28T05:25:36.533Z,61.86
2023-04-28T05:28:07.553Z,62.43
2023-04-28T05:30:35.849Z,61.74
2023-04-28T05:33:04.215Z,61.98
2023-04-28T05:35:32.671Z,61.09
2023-04-28T05:38:02.073Z,60.73
2023-04-28T05:40:30.264Z,60.16
2023-04-28T05:42:58.328Z,60.73
2023-04-28T05:45:26.382Z,59.69
2023-04-28T05:47:55.210Z,60.05
2023-04-28T05:50:24.129Z,59.63
2023-04-28T05:52:52.509Z,59.84
2023-04-28T05:55:22.100Z,61.07
2023-04-28T05:57:53.313Z,61.92
2023-04-28T06:00:22.890Z,60.71
2023-04-28T06:02:54.374Z,60.75
2023-04-28T06:05:23.453Z,60.64
2023-04-28T06:07:56.131Z,60.92
2023-04-28T06:10:27.264Z,60.89
2023-04-28T06:12:55.240Z,60.33
2023-04-28T06:15:23.115Z,60.86
2023-04-28T06:17:51.357Z,61.35
2023-04-28T06:20:20.585Z,61.27
2023-04-28T06:22:48.606Z,61.75
2023-04-28T06:25:16.563Z,61.84
2023-04-28T06:27:48.806Z,61.95
2023-04-28T06:30:19.995Z,61.67
2023-04-28T06:32:47.980Z,62.61
2023-04-28T06:35:16.478Z,62.62
2023-04-28T06:37:44.549Z,63.51
2023-04-28T06:40:12.868Z,63.33
2023-04-28T06:42:50.899Z,63.47
2023-04-28T06:45:25.650Z,63.47
2023-04-28T06:47:56.033Z,64.17
2023-04-28T06:50:24.466Z,63.90
2023-04-28T06:52:52.447Z,63.87
2023-04-28T06:55:20.567Z,64.30
2023-04-28T06:57:49.958Z,64.84
2023-04-28T07:00:18.717Z,64.05
2023-04-28T07:02:46.796Z,63.03
2023-04-28T07:05:16.282Z,61.72
2023-04-28T07:07:44.851Z,60.13
2023-04-28T07:10:13.339Z,59.57
2023-04-28T07:12:41.226Z,60.37
2023-04-28T07:15:11.585Z,61.25
2023-04-28T07:17:39.672Z,60.98
2023-04-28T07:20:08.767Z,59.76
2023-04-28T07:22:36.746Z,59.68
2023-04-28T07:25:06.049Z,60.08
2023-04-28T07:27:34.196Z,60.38
2023-04-28T07:30:11.619Z,60.17
2023-04-28T07:32:48.422Z,59.33
2023-04-28T07:35:16.466Z,58.20
2023-04-28T07:37:44.466Z,59.24
2023-04-28T07:40:12.979Z,59.10
2023-04-28T07:42:41.062Z,58.74
2023-04-28T07:45:09.788Z,59.18
2023-04-28T07:47:37.951Z,61.34
2023-04-28T07:50:08.548Z,58.46
2023-04-28T07:52:36.750Z,58.55
2023-04-28T07:55:04.788Z,57.80
2023-04-28T07:57:32.664Z,57.46
2023-04-28T08:00:00.603Z,57.27
2023-04-28T08:02:29.024Z,57.77
2023-04-28T08:04:57.408Z,57.47
2023-04-28T08:07:26.948Z,57.09
2023-04-28T08:09:55.321Z,56.99
2023-04-28T08:12:23.257Z,57.89
2023-04-28T08:14:51.149Z,57.77
2023-04-28T08:17:19.358Z,57.12
2023-04-28T08:19:47.572Z,57.05
2023-04-28T08:22:15.907Z,57.40
2023-04-28T08:24:45.232Z,58.17
2023-04-28T08:27:13.447Z,58.02
2023-04-28T08:29:41.379Z,57.48
2023-04-28T08:32:09.572Z,59.57
2023-04-28T08:34:37.532Z,58.29
2023-04-28T08:37:06.912Z,58.80
2023-04-28T08:39:35.374Z,58.79
2023-04-28T08:42:06.154Z,56.15
2023-04-28T08:44:39.473Z,55.08
2023-04-28T08:47:13.033Z,56.38
2023-04-28T08:49:45.637Z,54.19
2023-04-28T08:52:18.388Z,55.19
2023-04-28T08:54:50.577Z,57.41
2023-04-28T08:57:21.759Z,56.96
2023-04-28T08:59:50.339Z,56.47
2023-04-28T09:02:18.690Z,56.51
2023-04-28T09:04:48.269Z,57.74
2023-04-28T09:07:16.437Z,57.37
2023-04-28T09:09:45.355Z,58.05
2023-04-28T09:12:13.268Z,57.97
2023-04-28T09:14:42.694Z,58.58
2023-04-28T09:17:13.242Z,57.98
2023-04-28T09:19:43.052Z,57.50
2023-04-28T09:22:25.478Z,58.05
2023-04-28T09:24:55.439Z,58.05
2023-04-28T09:27:28.708Z,57.95
2023-04-28T09:29:58.310Z,57.41
2023-04-28T09:32:27.968Z,57.99
2023-04-28T09:34:57.532Z,58.06
2023-04-28T09:37:27.299Z,59.16
2023-04-28T09:39:56.334Z,58.84
2023-04-28T09:42:34.895Z,58.91
2023-04-28T09:45:05.966Z,58.05
2023-04-28T09:47:35.645Z,57.98
2023-04-28T09:50:05.144Z,57.11
2023-04-28T09:52:34.577Z,57.99
2023-04-28T09:55:04.712Z,57.64
2023-04-28T09:57:34.605Z,57.59
2023-04-28T10:00:06.447Z,57.47
2023-04-28T10:05:09.601Z,56.82
2023-04-28T10:07:39.199Z,57.61
2023-04-28T10:10:08.625Z,56.74
2023-04-28T10:12:38.411Z,57.58
2023-04-28T10:15:10.677Z,56.69
2023-04-28T10:17:40.624Z,56.73
2023-04-28T10:20:10.067Z,56.62
2023-04-28T10:22:54.389Z,55.28
2023-04-28T10:25:28.951Z,57.37
2023-04-28T10:27:57.326Z,56.96
2023-04-28T10:30:29.551Z,55.64
2023-04-28T10:33:27.370Z,55.83
2023-04-28T10:35:55.641Z,55.34
2023-04-28T10:38:23.589Z,55.62
2023-04-28T10:40:53.795Z,55.38
2023-04-28T10:43:40.655Z,56.39
2023-04-28T10:46:11.461Z,56.21
2023-04-28T10:48:56.483Z,55.68
2023-04-28T10:51:34.422Z,55.76
2023-04-28T10:54:28.241Z,56.25
2023-04-28T10:57:19.276Z,58.04
2023-04-28T10:59:47.414Z,56.62
2023-04-28T11:02:47.238Z,57.63
2023-04-28T11:05:18.850Z,56.14
2023-04-28T11:08:32.799Z,56.72
2023-04-28T11:11:20.812Z,56.78
2023-04-28T11:13:50.303Z,56.43
2023-04-28T11:16:23.991Z,57.61
2023-04-28T11:19:04.903Z,58.27
2023-04-28T11:21:34.051Z,57.64
2023-04-28T11:24:10.470Z,57.79
2023-04-28T11:26:39.379Z,56.88
2023-04-28T11:29:07.302Z,56.67
2023-04-28T11:31:35.416Z,57.17
2023-04-28T11:34:11.946Z,56.28
2023-04-28T11:36:41.763Z,56.76
2023-04-28T11:39:10.975Z,56.79
2023-04-28T11:41:41.051Z,56.80
2023-04-28T11:44:13.519Z,59.38
2023-04-28T11:46:51.027Z,59.69
2023-04-28T11:49:21.370Z,58.90
2023-04-28T11:51:50.288Z,57.06
2023-04-28T11:54:22.714Z,56.68
2023-04-28T11:56:51.071Z,56.65
2023-04-28T11:59:20.762Z,56.41
2023-04-28T12:01:50.857Z,56.56
2023-04-28T12:04:31.908Z,57.21
2023-04-28T12:07:02.173Z,56.37
2023-04-28T12:09:30.566Z,56.61
2023-04-28T12:12:01.000Z,56.40
2023-04-28T12:14:28.991Z,57.01
2023-04-28T12:16:57.426Z,57.27
2023-04-28T12:19:25.390Z,57.10
2023-04-28T12:22:12.431Z,56.49
2023-04-28T12:24:41.028Z,57.83
2023-04-28T12:27:16.700Z,59.94
2023-04-28T12:29:46.548Z,58.77
2023-04-28T12:32:15.228Z,58.47
2023-04-28T12:34:44.034Z,57.52
2023-04-28T12:37:13.978Z,57.03
2023-04-28T12:39:43.189Z,56.54
2023-04-28T12:42:11.798Z,57.12
2023-04-28T12:44:40.883Z,56.32
2023-04-28T12:47:11.232Z,56.68
2023-04-28T12:49:39.865Z,56.18
2023-04-28T12:52:07.934Z,55.64
2023-04-28T12:54:37.417Z,55.92
2023-04-28T12:57:06.261Z,55.58
2023-04-28T12:59:34.399Z,56.63
2023-04-28T13:02:02.671Z,56.37
2023-04-28T13:04:31.235Z,57.18
2023-04-28T13:06:59.752Z,57.51
2023-04-28T13:09:27.971Z,56.73
2023-04-28T13:11:57.328Z,56.86
2023-04-28T13:14:25.498Z,57.50
2023-04-28T13:16:53.888Z,56.33
2023-04-28T13:19:22.384Z,57.43
2023-04-28T13:21:50.637Z,56.75
2023-04-28T13:24:18.814Z,55.96
2023-04-28T13:26:46.761Z,57.24
2023-04-28T13:29:16.221Z,57.14
2023-04-28T13:31:44.508Z,57.36
2023-04-28T13:34:16.096Z,56.53
2023-04-28T13:36:45.607Z,57.01
2023-04-28T13:39:14.718Z,56.74
2023-04-28T13:41:43.220Z,56.98
2023-04-28T13:44:11.384Z,57.43
2023-04-28T13:46:40.687Z,59.07
2023-04-28T13:49:08.763Z,58.43
2023-04-28T13:51:36.735Z,57.28
2023-04-28T13:54:05.445Z,57.94
2023-04-28T13:56:33.562Z,58.03
2023-04-28T13:59:01.558Z,58.29
2023-04-28T14:01:29.733Z,57.26
2023-04-28T14:03:59.651Z,56.92
2023-04-28T14:06:28.884Z,57.53
2023-04-28T14:08:56.987Z,57.75
2023-04-28T14:11:24.891Z,58.85
2023-04-28T14:13:52.766Z,57.65
2023-04-28T14:16:20.894Z,57.66
2023-04-28T14:18:49.802Z,58.57
2023-04-28T14:21:19.042Z,57.53
2023-04-28T14:23:47.185Z,58.90
2023-04-28T14:26:15.111Z,58.49
2023-04-28T14:28:43.124Z,58.01
2023-04-28T14:31:11.043Z,56.86
2023-04-28T14:33:38.910Z,57.19
2023-04-28T14:36:06.995Z,56.61
2023-04-28T14:38:38.253Z,55.78
2023-04-28T14:41:07.475Z,56.54
2023-04-28T14:43:35.395Z,55.88
2023-04-28T14:46:03.364Z,56.13
2023-04-28T14:48:32.437Z,56.57
2023-04-28T14:51:00.518Z,57.91
2023-04-28T14:53:28.662Z,58.38
2023-04-28T14:56:07.519Z,58.00
2023-04-28T14:58:45.488Z,58.87
2023-04-28T15:01:13.475Z,58.19
2023-04-28T15:03:41.546Z,57.89
2023-04-28T15:06:10.179Z,58.54
2023-04-28T15:08:38.047Z,58.78
2023-04-28T15:11:07.351Z,60.67
2023-04-28T15:13:35.895Z,60.66
2023-04-28T15:16:03.902Z,60.81
2023-04-28T15:18:31.955Z,60.16
2023-04-28T15:21:00.559Z,59.48
2023-04-28T15:23:28.568Z,59.64
2023-04-28T15:25:56.457Z,59.22
2023-04-28T15:28:25.952Z,58.06
2023-04-28T15:30:54.022Z,58.97
2023-04-28T15:33:21.906Z,59.33
2023-04-28T15:35:49.830Z,58.98
2023-04-28T15:38:18.189Z,58.12
2023-04-28T15:40:47.200Z,60.15
2023-04-28T15:43:15.089Z,58.63
2023-04-28T15:45:44.911Z,59.22
2023-04-28T15:48:12.922Z,58.60
2023-04-28T15:50:41.709Z,58.91
2023-04-28T15:53:09.744Z,57.96
2023-04-28T15:55:37.884Z,61.06
2023-04-28T15:58:05.836Z,58.08
2023-04-28T16:00:34.207Z,59.54
2023-04-28T16:03:03.794Z,58.12
2023-04-28T16:05:31.992Z,57.69
2023-04-28T16:08:00.047Z,56.60
2023-04-28T16:10:28.561Z,56.12
2023-04-28T16:12:56.916Z,56.90
2023-04-28T16:15:25.310Z,58.01
2023-04-28T16:17:53.368Z,56.59
2023-04-28T16:20:22.857Z,56.87
2023-04-28T16:22:50.859Z,56.54
2023-04-28T16:25:19.210Z,57.45
2023-04-28T16:27:47.138Z,58.21
2023-04-28T16:30:15.452Z,57.37
2023-04-28T16:32:43.381Z,56.56
2023-04-28T16:35:15.270Z,56.25
2023-04-28T16:37:44.841Z,56.43
2023-04-28T16:40:13.966Z,57.30
2023-04-28T16:42:43.521Z,57.98
2023-04-28T16:45:12.174Z,56.44
2023-04-28T16:47:42.317Z,57.32
2023-04-28T16:50:11.567Z,57.60
2023-04-28T16:52:39.462Z,58.24
2023-04-28T16:55:09.816Z,59.33
2023-04-28T16:57:37.856Z,59.61
2023-04-28T17:00:06.881Z,58.96
2023-04-28T17:02:34.963Z,59.47
2023-04-28T17:05:03.154Z,59.52
2023-04-28T17:07:31.261Z,59.62
2023-04-28T17:09:59.317Z,58.92
2023-04-28T17:12:28.559Z,58.43
2023-04-28T17:14:56.504Z,57.92
2023-04-28T17:17:24.418Z,57.70
2023-04-28T17:19:52.689Z,57.39
2023-04-28T17:22:20.757Z,57.33
2023-04-28T17:24:48.626Z,57.29
2023-04-28T17:27:16.520Z,57.90
2023-04-28T17:29:45.814Z,58.88
2023-04-28T17:32:13.780Z,59.07
2023-04-28T17:34:41.686Z,58.14
2023-04-28T17:37:09.749Z,57.92
2023-04-28T17:39:37.645Z,58.90
2023-04-28T17:42:05.560Z,58.42
2023-04-28T17:44:33.477Z,58.76
2023-04-28T17:47:02.822Z,60.74
2023-04-28T17:49:30.910Z,61.79
2023-04-28T17:51:58.864Z,59.09
2023-04-28T17:54:26.747Z,59.69
2023-04-28T17:56:55.973Z,61.14
2023-04-28T17:59:24.133Z,61.54
2023-04-28T18:01:53.791Z,59.56
2023-04-28T18:04:23.161Z,58.59
2023-04-28T18:06:51.068Z,58.82
2023-04-28T18:09:18.985Z,60.90
2023-04-28T18:11:47.111Z,62.59
2023-04-28T18:14:18.296Z,63.80
2023-04-28T18:16:46.546Z,63.79
2023-04-28T18:19:14.694Z,64.62
2023-04-28T18:21:43.922Z,64.07
2023-04-28T18:24:11.924Z,63.19
2023-04-28T18:26:39.864Z,64.10
2023-04-28T18:29:07.805Z,65.11
2023-04-28T18:31:35.805Z,67.93
2023-04-28T18:34:05.123Z,70.31
2023-04-28T18:36:34.897Z,70.73
2023-04-28T18:39:06.252Z,70.05
2023-04-28T18:41:35.836Z,69.24
2023-04-28T18:44:04.103Z,70.68
2023-04-28T18:46:32.737Z,71.44
2023-04-28T18:49:00.698Z,70.33
2023-04-28T18:51:28.625Z,70.88
2023-04-28T18:53:56.489Z,71.15
2023-04-28T18:56:25.818Z,69.65
2023-04-28T18:58:53.702Z,68.78
2023-04-28T19:01:21.824Z,70.58
2023-04-28T19:03:50.232Z,72.20
2023-04-28T19:06:19.874Z,73.38
2023-04-28T19:08:48.067Z,73.80
2023-04-28T19:11:16.088Z,74.40
2023-04-28T19:13:45.684Z,73.50
2023-04-28T19:16:13.640Z,72.65
2023-04-28T19:18:42.141Z,72.25
2023-04-28T19:21:12.190Z,72.61
2023-04-28T19:23:40.829Z,70.78
2023-04-28T19:26:09.530Z,71.32
2023-04-28T19:28:37.565Z,69.22
2023-04-28T19:31:06.954Z,69.54
2023-04-28T19:33:34.875Z,70.18
2023-04-28T19:36:03.176Z,76.24
2023-04-28T19:38:31.145Z,74.78
2023-04-28T19:41:02.520Z,76.14
2023-04-28T19:43:30.712Z,81.52
2023-04-28T19:45:58.709Z,84.88
2023-04-28T19:48:28.217Z,87.20
2023-04-28T19:50:56.478Z,88.69
2023-04-28T19:53:24.429Z,88.43
2023-04-28T19:55:52.373Z,88.15
2023-04-28T19:58:20.834Z,90.27
2023-04-28T20:00:48.946Z,91.31
2023-04-28T20:03:17.509Z,92.05
2023-04-28T20:05:47.114Z,91.32
2023-04-28T20:08:15.085Z,92.49
2023-04-28T20:10:43.487Z,89.85
2023-04-28T20:13:11.471Z,90.24
2023-04-28T20:15:40.172Z,90.55
2023-04-28T20:18:08.193Z,90.17
2023-04-28T20:20:36.147Z,91.38
2023-04-28T20:23:05.416Z,90.99
2023-04-28T20:25:37.235Z,92.35
2023-04-28T20:28:05.375Z,91.14
2023-04-28T20:30:33.275Z,89.39
2023-04-28T20:33:01.456Z,91.72
2023-04-28T20:35:29.459Z,93.38
2023-04-28T20:37:58.769Z,91.89
2023-04-28T20:40:28.276Z,94.19
2023-04-28T20:42:56.752Z,94.34
2023-04-28T20:45:24.674Z,94.76
2023-04-28T20:47:53.940Z,92.53
2023-04-28T20:50:23.128Z,89.76
2023-04-28T20:52:51.144Z,93.35
2023-04-28T20:55:19.078Z,89.15
2023-04-28T20:57:48.392Z,92.98
2023-04-28T21:00:16.529Z,93.53
2023-04-28T21:02:45.431Z,94.39
2023-04-28T21:05:13.740Z,94.97
2023-04-28T21:07:41.732Z,96.40
2023-04-28T21:10:10.839Z,96.89
2023-04-28T21:12:38.833Z,95.28
2023-04-28T21:15:09.144Z,95.98
2023-04-28T21:17:37.113Z,94.24
2023-04-28T21:20:06.013Z,96.10
2023-04-28T21:22:34.293Z,97.24
2023-04-28T21:25:02.203Z,97.47
2023-04-28T21:27:30.132Z,97.89
2023-04-28T21:29:58.423Z,98.27
2023-04-28T21:32:27.775Z,97.55
2023-04-28T21:34:55.729Z,94.16
2023-04-28T21:37:23.678Z,95.43
2023-04-28T21:39:51.773Z,93.53
2023-04-28T21:42:19.977Z,95.90
2023-04-28T21:44:48.002Z,95.37
2023-04-28T21:47:16.726Z,94.17
2023-04-28T21:49:46.095Z,92.79
2023-04-28T21:52:14.312Z,94.41
2023-04-28T21:54:42.504Z,95.49
2023-04-28T21:57:10.453Z,94.34
2023-04-28T21:59:38.393Z,92.13
2023-04-28T22:02:07.324Z,93.30
2023-04-28T22:04:35.608Z,94.87
2023-04-28T22:07:05.763Z,95.66
2023-04-28T22:09:33.844Z,93.68
2023-04-28T22:12:01.712Z,94.34
2023-04-28T22:17:00.507Z,95.62
2023-04-28T22:19:28.394Z,93.18
2023-04-28T22:21:56.297Z,94.92
2023-04-28T22:24:25.866Z,96.58
2023-04-28T22:26:54.776Z,97.81
2023-04-28T22:29:22.847Z,96.68
2023-04-28T22:31:50.753Z,97.76
2023-04-28T22:34:18.929Z,98.68
2023-04-28T22:36:47.451Z,100.00
2023-04-28T22:39:15.530Z,97.16
2023-04-28T22:41:44.931Z,98.22
2023-04-28T22:44:12.817Z,95.93
2023-04-28T22:46:40.785Z,99.15
2023-04-28T22:49:08.793Z,96.78
2023-04-28T22:51:36.826Z,94.58
2023-04-28T22:54:04.943Z,95.59
2023-04-28T22:56:32.855Z,99.19
2023-04-28T22:59:03.190Z,99.55
2023-04-28T23:01:31.982Z,98.83
2023-04-28T23:04:00.111Z,98.52
2023-04-28T23:06:29.182Z,98.53
2023-04-28T23:08:57.090Z,98.13
2023-04-28T23:11:25.489Z,97.15
2023-04-28T23:13:53.510Z,96.83
2023-04-28T23:16:23.002Z,96.12
2023-04-28T23:18:50.963Z,96.31
2023-04-28T23:21:18.881Z,96.42
2023-04-28T23:23:46.822Z,96.85
2023-04-28T23:26:14.693Z,97.33
2023-04-28T23:28:42.639Z,97.14
2023-04-28T23:31:10.590Z,95.17
2023-04-28T23:33:39.915Z,95.75
2023-04-28T23:36:09.066Z,94.48
2023-04-28T23:38:36.978Z,95.72
2023-04-28T23:41:06.370Z,95.18
2023-04-28T23:43:34.301Z,95.75
2023-04-28T23:46:02.590Z,93.98
2023-04-28T23:48:30.559Z,96.28
2023-04-28T23:50:59.880Z,94.97
2023-04-28T23:53:28.003Z,97.21
2023-04-28T23:55:55.941Z,94.29
2023-04-28T23:58:23.909Z,92.49
